Terminal Aerodrome Forecast
Issued by NWS Houston/Galveston, TX

Home | Current Version | Previous Version | Text Only | Print | Product List | Glossary On
Versions: 1 2 3 4 5 6 7 8 9 10 11 12 13 14 15 16 17 18 19
000
FTUS44 KHGX 261845 AAA
TAFCLL
TAF AMD
KCLL 261845Z 2619/2718 15012G22KT P6SM VCSH BKN045
     FM270200 15008KT P6SM VCSH BKN025
     FM270700 15006KT P6SM SCT015 BKN025
     FM271200 16005KT P6SM SCT009 BKN012
     FM271500 18008KT P6SM SCT015 BKN025=

USA.gov is the U.S. government's official web portal to all federal, state and local government web resources and services.